Time;durP1;ratioP1;P1;durP2;ratioP2;P2;SDS_P1;SDS_P2;PMS_P1;PMS_P2;Temp;Humidity;BMP_temperature;BMP_pressure;BME280_temperature;BME280_humidity;BME280_pressure;Samples;Min_cycle;Max_cycle;Signal;HPM_P1;HPM_P2
2023/08/12 00:00:19;;;;;;;6.40;4.90;;;26.30;99.70;;;;;;5065655;28;20195;-86
2023/08/12 00:02:45;;;;;;;4.70;4.17;;;26.30;99.60;;;;;;5063663;28;20265;-86
2023/08/12 00:05:12;;;;;;;7.07;4.30;;;26.40;99.40;;;;;;5066453;28;20256;-86
2023/08/12 00:07:42;;;;;;;8.50;4.87;;;26.30;99.40;;;;;;5062426;28;20184;-86
2023/08/12 00:10:10;;;;;;;5.40;3.90;;;26.40;99.50;;;;;;5065541;28;20445;-86
2023/08/12 00:12:36;;;;;;;6.97;4.80;;;26.30;99.00;;;;;;5063200;28;20176;-86
2023/08/12 00:15:04;;;;;;;5.23;4.10;;;26.40;99.60;;;;;;5064626;28;20266;-86
2023/08/12 00:17:29;;;;;;;5.60;4.40;;;26.30;99.60;;;;;;5062474;28;20216;-86
2023/08/12 00:19:55;;;;;;;5.57;4.50;;;26.30;99.40;;;;;;5066071;28;20218;-86
2023/08/12 00:22:22;;;;;;;5.70;4.80;;;26.40;99.30;;;;;;5041496;28;20297;-86
2023/08/12 00:24:48;;;;;;;6.07;3.97;;;26.40;99.60;;;;;;5062714;28;20218;-86
2023/08/12 00:27:14;;;;;;;5.83;4.07;;;26.40;99.60;;;;;;5063181;28;20469;-87
2023/08/12 00:29:40;;;;;;;6.00;4.37;;;26.30;99.70;;;;;;5063146;28;20171;-87
2023/08/12 00:32:06;;;;;;;6.20;4.23;;;26.30;99.70;;;;;;5064175;28;20334;-87
2023/08/12 00:34:32;;;;;;;4.70;4.07;;;26.30;99.50;;;;;;5065236;28;20190;-86
2023/08/12 00:36:57;;;;;;;5.63;4.33;;;26.20;99.40;;;;;;5063636;28;20184;-86
2023/08/12 00:39:23;;;;;;;5.57;4.23;;;26.30;99.40;;;;;;5063330;28;20220;-86
2023/08/12 00:41:48;;;;;;;4.90;4.00;;;26.30;99.30;;;;;;5062758;28;20184;-87
2023/08/12 00:44:15;;;;;;;6.20;4.30;;;26.30;99.10;;;;;;5063836;28;20212;-87
2023/08/12 00:46:43;;;;;;;4.87;4.20;;;26.30;99.20;;;;;;5061640;28;20207;-87
2023/08/12 00:49:10;;;;;;;5.10;4.13;;;26.30;99.20;;;;;;5063739;28;20183;-87
2023/08/12 00:51:37;;;;;;;5.30;4.50;;;26.30;99.50;;;;;;5060923;28;20283;-87
2023/08/12 00:54:07;;;;;;;4.87;3.87;;;26.20;99.30;;;;;;5054466;28;20185;-87
2023/08/12 00:56:35;;;;;;;5.43;4.73;;;26.20;99.50;;;;;;5064790;28;20422;-87
2023/08/12 00:59:04;;;;;;;4.87;3.97;;;26.20;99.90;;;;;;5063736;28;20199;-87
2023/08/12 01:01:30;;;;;;;6.17;4.93;;;26.10;99.80;;;;;;5062969;28;20229;-86
2023/08/12 01:03:57;;;;;;;5.83;4.50;;;26.10;99.90;;;;;;5064755;28;20195;-87
2023/08/12 01:06:23;;;;;;;4.27;3.87;;;26.10;99.90;;;;;;5066239;28;20529;-86
2023/08/12 01:08:49;;;;;;;4.40;3.30;;;26.10;99.90;;;;;;5066357;28;20183;-87
2023/08/12 01:11:25;;;;;;;4.10;3.70;;;26.10;99.90;;;;;;5062341;28;20184;-87
2023/08/12 01:14:04;;;;;;;4.30;3.67;;;26.00;99.90;;;;;;5054313;28;20179;-87
2023/08/12 01:16:33;;;;;;;4.20;3.80;;;26.00;99.90;;;;;;5064933;28;20291;-87
2023/08/12 01:19:01;;;;;;;4.30;3.23;;;26.00;99.90;;;;;;5060271;28;20592;-87
2023/08/12 01:21:29;;;;;;;7.70;5.63;;;26.00;99.90;;;;;;5064302;28;20242;-86
2023/08/12 01:23:54;;;;;;;4.67;4.03;;;26.00;99.90;;;;;;5060552;28;20184;-86
2023/08/12 01:26:20;;;;;;;4.37;3.57;;;26.00;99.90;;;;;;5062894;28;20219;-86
2023/08/12 01:28:46;;;;;;;4.43;4.03;;;26.00;99.90;;;;;;5062164;28;20184;-87
2023/08/12 01:31:19;;;;;;;4.50;4.10;;;25.90;99.90;;;;;;5045739;28;20337;-87
2023/08/12 01:33:54;;;;;;;5.00;3.93;;;25.90;99.90;;;;;;5063848;28;20190;-87
2023/08/12 01:36:21;;;;;;;6.00;4.70;;;25.70;99.90;;;;;;5042732;28;20550;-87
2023/08/12 01:38:51;;;;;;;8.20;5.63;;;25.20;99.90;;;;;;5065512;28;20213;-87
2023/08/12 01:41:20;;;;;;;5.87;4.73;;;24.80;99.90;;;;;;5062443;28;20245;-87
2023/08/12 01:43:46;;;;;;;6.87;5.00;;;24.40;99.90;;;;;;5063607;28;20642;-87
2023/08/12 01:46:12;;;;;;;5.70;5.13;;;24.50;99.90;;;;;;5063667;28;20677;-87
2023/08/12 01:48:38;;;;;;;5.67;4.30;;;24.80;99.90;;;;;;5061581;28;20274;-87
2023/08/12 01:51:04;;;;;;;7.53;5.27;;;25.00;99.90;;;;;;5065536;28;20175;-87
2023/08/12 01:53:30;;;;;;;6.23;4.73;;;25.20;99.90;;;;;;5061779;28;20180;-87
2023/08/12 01:55:55;;;;;;;5.70;4.40;;;25.30;99.90;;;;;;5064098;28;20575;-87
2023/08/12 01:58:21;;;;;;;5.10;4.13;;;25.40;99.90;;;;;;5060424;28;20183;-87
2023/08/12 02:00:47;;;;;;;4.53;3.77;;;25.50;99.90;;;;;;5053627;28;20176;-87
2023/08/12 02:03:12;;;;;;;4.63;4.23;;;25.60;99.90;;;;;;5049714;28;20590;-87
2023/08/12 02:05:38;;;;;;;5.27;4.10;;;25.60;99.90;;;;;;5065603;28;20212;-87
2023/08/12 02:08:05;;;;;;;5.47;3.83;;;25.60;99.90;;;;;;5062286;28;20592;-87
2023/08/12 02:10:30;;;;;;;4.03;3.73;;;25.60;99.90;;;;;;5062279;28;20286;-87
2023/08/12 02:12:56;;;;;;;4.10;3.70;;;25.70;99.90;;;;;;5062028;28;20293;-87
2023/08/12 02:15:22;;;;;;;8.07;5.07;;;25.70;99.90;;;;;;5062267;28;20788;-87
2023/08/12 02:17:47;;;;;;;4.90;4.40;;;25.70;99.90;;;;;;5063138;28;20560;-87
2023/08/12 02:20:13;;;;;;;4.60;4.10;;;25.70;99.90;;;;;;5065017;28;20190;-87
2023/08/12 02:22:39;;;;;;;5.33;4.03;;;25.60;99.90;;;;;;5063097;28;20187;-87
2023/08/12 02:25:05;;;;;;;4.67;4.23;;;25.60;99.90;;;;;;5061395;28;20215;-87
2023/08/12 02:27:31;;;;;;;4.70;4.20;;;25.70;99.90;;;;;;5064046;28;20180;-87
2023/08/12 02:29:57;;;;;;;5.10;4.60;;;25.60;99.90;;;;;;5065263;28;20254;-88
2023/08/12 02:32:22;;;;;;;4.57;3.60;;;25.70;99.90;;;;;;5062028;28;20214;-87
2023/08/12 02:34:48;;;;;;;4.33;3.93;;;25.60;99.90;;;;;;5063602;28;20232;-87
2023/08/12 02:37:14;;;;;;;5.10;4.17;;;25.60;99.90;;;;;;5058966;28;20181;-87
2023/08/12 02:39:40;;;;;;;4.60;4.20;;;25.60;99.90;;;;;;5064717;28;20171;-87
2023/08/12 02:42:06;;;;;;;4.83;4.20;;;25.50;99.90;;;;;;5062531;28;20284;-87
2023/08/12 02:44:32;;;;;;;4.20;3.60;;;25.50;99.90;;;;;;5066310;28;20361;-87
2023/08/12 02:46:57;;;;;;;3.90;3.60;;;25.50;99.90;;;;;;5066104;28;20212;-87
2023/08/12 02:49:23;;;;;;;3.90;3.50;;;25.50;99.90;;;;;;5067651;28;20180;-87
2023/08/12 02:51:49;;;;;;;3.57;3.27;;;25.60;99.90;;;;;;5065204;28;20187;-87
2023/08/12 02:54:14;;;;;;;4.23;3.47;;;25.60;99.90;;;;;;5064153;28;20180;-87
2023/08/12 02:56:40;;;;;;;4.30;3.90;;;25.60;99.90;;;;;;5067200;28;20205;-87
2023/08/12 02:59:06;;;;;;;4.03;3.63;;;25.60;99.90;;;;;;5060456;28;20183;-87
2023/08/12 03:01:32;;;;;;;4.33;3.93;;;25.60;99.90;;;;;;5067446;28;20249;-87
2023/08/12 03:03:57;;;;;;;4.07;3.67;;;25.60;99.90;;;;;;5066692;28;20192;-87
2023/08/12 03:06:23;;;;;;;4.30;3.90;;;25.60;99.90;;;;;;5064563;28;20211;-87
2023/08/12 03:08:49;;;;;;;4.37;3.97;;;25.60;99.90;;;;;;5065035;28;20245;-87
2023/08/12 03:11:15;;;;;;;4.13;3.80;;;25.60;99.90;;;;;;5068475;28;20179;-87
2023/08/12 03:13:41;;;;;;;4.53;4.13;;;25.60;99.90;;;;;;5060649;28;20446;-87
2023/08/12 03:16:12;;;;;;;3.70;3.40;;;25.60;99.90;;;;;;5067914;28;20282;-87
2023/08/12 03:18:38;;;;;;;4.30;3.90;;;25.60;99.90;;;;;;5064643;28;20604;-87
2023/08/12 03:21:08;;;;;;;4.80;4.40;;;25.60;99.90;;;;;;5066595;28;20313;-87
2023/08/12 03:23:35;;;;;;;4.40;4.00;;;25.60;99.90;;;;;;5065451;28;20189;-87
2023/08/12 03:26:01;;;;;;;4.33;3.77;;;25.60;99.90;;;;;;5064436;28;20219;-87
2023/08/12 03:28:27;;;;;;;3.83;3.40;;;25.50;99.90;;;;;;5062665;28;20180;-87
2023/08/12 03:30:53;;;;;;;4.53;3.53;;;25.60;99.90;;;;;;5065680;28;20182;-87
2023/08/12 03:33:19;;;;;;;3.90;3.47;;;25.60;99.90;;;;;;5061761;28;20188;-87
2023/08/12 03:35:49;;;;;;;3.73;3.43;;;25.60;99.90;;;;;;5065804;28;20474;-87
2023/08/12 03:38:15;;;;;;;3.53;3.23;;;25.60;99.90;;;;;;5060329;28;20344;-87
2023/08/12 03:40:41;;;;;;;4.00;3.57;;;25.60;99.90;;;;;;5063952;28;20340;-87
2023/08/12 03:43:08;;;;;;;3.77;3.40;;;25.60;99.90;;;;;;5062494;28;20217;-87
2023/08/12 03:45:40;;;;;;;3.60;3.30;;;25.60;99.90;;;;;;5062870;28;20240;-87
2023/08/12 03:48:06;;;;;;;4.00;3.50;;;25.60;99.90;;;;;;5065890;28;20191;-87
2023/08/12 03:50:36;;;;;;;4.03;3.40;;;25.60;99.90;;;;;;5063613;28;20200;-87
2023/08/12 03:53:02;;;;;;;5.03;3.70;;;25.60;99.90;;;;;;5062712;28;20252;-87
2023/08/12 03:55:33;;;;;;;4.17;3.70;;;25.60;99.90;;;;;;5056244;28;20504;-87
2023/08/12 03:58:00;;;;;;;4.23;3.90;;;25.60;99.90;;;;;;5066297;28;20550;-87
2023/08/12 04:00:25;;;;;;;3.60;3.30;;;25.60;99.90;;;;;;5062761;28;20191;-87
2023/08/12 04:02:51;;;;;;;3.53;3.23;;;25.50;99.90;;;;;;5063099;28;20496;-87
2023/08/12 04:05:17;;;;;;;3.33;3.03;;;25.50;99.90;;;;;;5060340;28;20239;-87
2023/08/12 04:07:43;;;;;;;4.53;3.30;;;25.60;99.90;;;;;;5061562;28;20207;-87
2023/08/12 04:10:09;;;;;;;4.03;3.60;;;25.60;99.90;;;;;;5063516;28;20524;-87
2023/08/12 04:12:35;;;;;;;4.93;3.20;;;25.60;99.90;;;;;;5062176;28;20543;-87
2023/08/12 04:15:05;;;;;;;4.03;3.63;;;25.50;99.90;;;;;;5065642;28;20246;-87
2023/08/12 04:17:32;;;;;;;3.30;3.00;;;25.50;99.90;;;;;;5057716;28;20188;-86
2023/08/12 04:19:57;;;;;;;3.57;3.23;;;25.50;99.90;;;;;;5061895;28;20492;-86
2023/08/12 04:22:23;;;;;;;3.50;3.20;;;25.50;99.90;;;;;;5063740;28;20539;-86
2023/08/12 04:24:49;;;;;;;3.10;2.90;;;25.50;99.90;;;;;;5063366;28;20180;-86
2023/08/12 04:27:16;;;;;;;4.30;3.90;;;25.50;99.90;;;;;;5061780;28;20330;-86
2023/08/12 04:29:42;;;;;;;3.67;3.37;;;25.50;99.90;;;;;;5062602;28;20406;-87
2023/08/12 04:32:07;;;;;;;3.50;3.10;;;25.50;99.90;;;;;;5064534;28;20587;-86
2023/08/12 04:34:33;;;;;;;6.00;3.20;;;25.50;99.90;;;;;;5062211;28;20690;-86
2023/08/12 04:36:59;;;;;;;4.10;3.33;;;25.50;99.90;;;;;;5064719;28;20180;-85
2023/08/12 04:39:25;;;;;;;4.00;3.60;;;25.50;99.90;;;;;;5061682;28;20517;-86
2023/08/12 04:41:51;;;;;;;3.70;3.30;;;25.50;99.90;;;;;;5063738;28;20199;-86
2023/08/12 04:44:16;;;;;;;4.00;2.97;;;25.50;99.90;;;;;;5063997;28;20537;-86
2023/08/12 04:46:42;;;;;;;3.53;3.23;;;25.40;99.90;;;;;;5059073;28;20212;-86
2023/08/12 04:49:08;;;;;;;3.63;3.33;;;25.40;99.90;;;;;;5062542;28;20179;-86
2023/08/12 04:51:34;;;;;;;3.43;3.00;;;25.40;99.90;;;;;;5058332;28;20186;-86
2023/08/12 04:54:01;;;;;;;3.40;3.10;;;25.40;99.90;;;;;;5071956;28;20279;-86
2023/08/12 04:56:30;;;;;;;3.10;2.80;;;25.40;99.90;;;;;;5062774;28;20188;-86
2023/08/12 04:58:56;;;;;;;3.17;2.90;;;25.40;99.90;;;;;;5067582;28;20214;-86
2023/08/12 05:01:22;;;;;;;3.40;3.10;;;25.40;99.90;;;;;;5057998;28;20188;-86
2023/08/12 05:03:47;;;;;;;3.50;3.20;;;25.40;99.90;;;;;;5059784;28;20560;-86
2023/08/12 05:06:13;;;;;;;3.73;3.30;;;25.50;99.90;;;;;;5061735;28;20452;-86
2023/08/12 05:08:39;;;;;;;3.33;3.03;;;25.40;99.90;;;;;;5059805;28;20176;-86
2023/08/12 05:11:04;;;;;;;3.40;2.90;;;25.40;99.90;;;;;;5060650;28;20228;-86
2023/08/12 05:13:30;;;;;;;3.93;3.00;;;25.40;99.90;;;;;;5060691;28;20179;-86
2023/08/12 05:15:56;;;;;;;3.23;2.93;;;25.40;99.90;;;;;;5060301;28;20181;-86
2023/08/12 05:18:26;;;;;;;3.03;2.73;;;25.40;99.90;;;;;;5059132;28;20172;-85
2023/08/12 05:20:52;;;;;;;3.40;3.10;;;25.40;99.90;;;;;;5058189;28;20191;-85
2023/08/12 05:23:20;;;;;;;3.17;2.87;;;25.40;99.90;;;;;;5062435;28;20551;-86
2023/08/12 05:25:46;;;;;;;3.27;2.97;;;25.40;99.90;;;;;;5060691;28;20212;-86
2023/08/12 05:28:11;;;;;;;3.20;2.90;;;25.40;99.90;;;;;;5062995;28;20176;-85
2023/08/12 05:30:38;;;;;;;3.73;2.90;;;25.40;99.90;;;;;;5059565;28;20180;-86
2023/08/12 05:33:04;;;;;;;3.50;3.20;;;25.40;99.90;;;;;;5057850;28;20173;-86
2023/08/12 05:35:36;;;;;;;3.30;3.00;;;25.40;99.90;;;;;;5059380;28;20686;-86
2023/08/12 05:38:02;;;;;;;3.50;3.03;;;25.40;99.90;;;;;;5060753;28;20207;-86
2023/08/12 05:40:28;;;;;;;4.50;4.10;;;25.50;99.90;;;;;;5059234;28;20598;-85
2023/08/12 05:42:54;;;;;;;3.60;3.10;;;25.50;99.90;;;;;;5062174;28;20275;-86
2023/08/12 05:45:20;;;;;;;3.70;3.30;;;25.50;99.90;;;;;;5063132;28;20605;-85
2023/08/12 05:47:45;;;;;;;3.33;3.03;;;25.50;99.90;;;;;;5058250;28;20362;-85
2023/08/12 05:50:11;;;;;;;3.20;2.90;;;25.50;99.90;;;;;;5062316;28;20301;-85
2023/08/12 05:52:37;;;;;;;3.60;3.20;;;25.50;99.90;;;;;;5057503;28;20440;-85
2023/08/12 05:55:03;;;;;;;3.30;3.00;;;25.40;99.90;;;;;;5061118;28;20314;-85
2023/08/12 05:57:29;;;;;;;6.07;3.03;;;25.20;99.90;;;;;;5060425;28;20176;-85
2023/08/12 05:59:55;;;;;;;3.33;3.03;;;25.30;99.90;;;;;;5062154;28;20186;-85
2023/08/12 06:02:21;;;;;;;3.07;2.77;;;25.30;99.90;;;;;;5060562;28;20228;-85
2023/08/12 06:04:46;;;;;;;3.30;3.00;;;25.30;99.90;;;;;;5061597;28;20175;-85
2023/08/12 06:07:12;;;;;;;4.17;3.03;;;25.40;99.90;;;;;;5061494;28;20307;-85
2023/08/12 06:09:37;;;;;;;3.60;3.03;;;25.40;99.90;;;;;;5061137;28;20179;-85
2023/08/12 06:12:04;;;;;;;4.93;3.23;;;25.40;99.90;;;;;;5061254;28;20206;-85
2023/08/12 06:14:29;;;;;;;3.03;2.80;;;25.20;99.90;;;;;;5058671;28;20279;-85
2023/08/12 06:16:55;;;;;;;3.30;3.00;;;25.20;99.90;;;;;;5061075;28;20577;-85
2023/08/12 06:19:21;;;;;;;4.73;2.87;;;25.20;99.90;;;;;;5059756;28;20702;-85
2023/08/12 06:21:47;;;;;;;4.23;3.13;;;25.20;99.90;;;;;;5062273;28;20192;-86
2023/08/12 06:24:12;;;;;;;4.30;3.33;;;24.90;99.90;;;;;;5070832;28;20204;-85
2023/08/12 06:26:38;;;;;;;3.77;3.13;;;24.70;99.90;;;;;;5064591;28;20221;-85
2023/08/12 06:29:04;;;;;;;4.73;2.97;;;24.50;99.90;;;;;;5060884;28;20287;-85
2023/08/12 06:31:30;;;;;;;4.87;2.80;;;24.50;99.90;;;;;;5064625;28;20187;-85
2023/08/12 06:33:55;;;;;;;3.30;2.70;;;24.60;99.90;;;;;;5067181;28;20179;-85
2023/08/12 06:36:21;;;;;;;2.83;2.63;;;24.80;99.90;;;;;;5063177;28;20645;-85
2023/08/12 06:38:46;;;;;;;3.17;2.70;;;24.80;99.90;;;;;;5061495;28;20638;-86
2023/08/12 06:41:12;;;;;;;3.13;2.70;;;25.00;99.90;;;;;;5064994;28;20172;-86
2023/08/12 06:43:38;;;;;;;3.00;2.70;;;25.00;99.90;;;;;;5047276;28;20194;-86
2023/08/12 06:46:04;;;;;;;4.23;2.70;;;25.00;99.90;;;;;;5063661;28;20207;-85
2023/08/12 06:48:29;;;;;;;3.60;2.73;;;25.10;99.90;;;;;;5065019;28;20250;-86
2023/08/12 06:50:56;;;;;;;3.53;2.87;;;25.00;99.90;;;;;;5061061;28;20187;-86
2023/08/12 06:53:22;;;;;;;3.03;2.73;;;25.00;99.90;;;;;;5061975;28;20176;-86
2023/08/12 06:55:47;;;;;;;4.73;2.73;;;25.00;99.90;;;;;;5065907;28;20616;-85
2023/08/12 06:58:14;;;;;;;3.37;2.60;;;25.00;99.90;;;;;;5063926;28;20283;-87
2023/08/12 07:00:42;;;;;;;3.50;2.63;;;25.00;99.90;;;;;;5065078;28;20229;-86
2023/08/12 07:03:08;;;;;;;3.07;2.63;;;24.80;99.90;;;;;;5061100;28;20227;-86
2023/08/12 07:05:33;;;;;;;3.10;2.80;;;24.80;99.90;;;;;;5064065;28;20290;-86
2023/08/12 07:07:59;;;;;;;2.93;2.60;;;24.80;99.90;;;;;;5062245;28;20168;-87
2023/08/12 07:10:25;;;;;;;4.83;2.70;;;24.60;99.90;;;;;;5063529;28;20325;-86
2023/08/12 07:12:51;;;;;;;3.27;2.57;;;24.50;99.90;;;;;;5061974;28;20176;-88
2023/08/12 07:15:16;;;;;;;2.77;2.57;;;24.30;99.90;;;;;;5063704;28;20237;-87
2023/08/12 07:17:42;;;;;;;3.10;2.80;;;24.40;99.90;;;;;;5062463;28;20234;-87
2023/08/12 07:20:08;;;;;;;2.77;2.30;;;24.50;99.90;;;;;;5058475;28;20184;-88
2023/08/12 07:22:34;;;;;;;2.93;2.60;;;24.60;99.90;;;;;;5059202;28;20214;-87
2023/08/12 07:25:00;;;;;;;4.13;2.73;;;24.80;99.90;;;;;;5058461;28;20211;-88
2023/08/12 07:27:26;;;;;;;3.27;2.50;;;24.90;99.90;;;;;;5059696;28;20182;-87
2023/08/12 07:29:52;;;;;;;2.87;2.37;;;24.80;99.90;;;;;;5052458;28;20185;-87
2023/08/12 07:32:18;;;;;;;3.37;2.30;;;24.80;99.90;;;;;;5057696;28;20177;-87
2023/08/12 07:34:44;;;;;;;3.30;2.50;;;24.90;99.90;;;;;;5058388;28;20183;-88
2023/08/12 07:37:10;;;;;;;3.17;2.30;;;24.90;99.90;;;;;;5058745;28;20177;-88
2023/08/12 07:39:36;;;;;;;3.47;2.60;;;25.00;99.90;;;;;;5062768;28;20179;-87
2023/08/12 07:42:02;;;;;;;3.20;2.47;;;25.00;99.90;;;;;;5058968;28;20499;-87
2023/08/12 07:44:27;;;;;;;4.63;2.40;;;25.10;99.90;;;;;;5060437;28;20184;-88
2023/08/12 07:46:53;;;;;;;2.90;2.17;;;25.10;99.90;;;;;;5056573;28;20239;-87
2023/08/12 07:49:19;;;;;;;2.53;2.33;;;25.20;99.90;;;;;;5059164;28;20434;-87
2023/08/12 07:51:45;;;;;;;3.37;2.13;;;25.20;99.90;;;;;;5060211;28;20184;-87
2023/08/12 07:54:12;;;;;;;2.93;2.50;;;25.30;99.90;;;;;;5060990;28;20172;-87
2023/08/12 07:56:37;;;;;;;2.80;2.40;;;25.20;99.90;;;;;;5071234;28;20184;-87
2023/08/12 07:59:03;;;;;;;3.13;2.47;;;25.20;99.90;;;;;;5061825;28;20203;-87
2023/08/12 08:01:29;;;;;;;2.43;2.20;;;25.20;99.90;;;;;;5058754;28;20180;-87
2023/08/12 08:03:54;;;;;;;3.23;2.20;;;25.30;99.90;;;;;;5061486;28;20183;-87
2023/08/12 08:06:21;;;;;;;2.73;2.40;;;25.20;99.90;;;;;;5062154;28;20508;-86
2023/08/12 08:08:47;;;;;;;3.00;2.27;;;25.20;99.90;;;;;;5054887;28;20260;-86
2023/08/12 08:11:13;;;;;;;2.90;2.10;;;25.30;99.90;;;;;;5058718;28;20255;-86
2023/08/12 08:13:39;;;;;;;2.90;2.10;;;25.40;99.90;;;;;;5058526;28;20177;-86
2023/08/12 08:16:04;;;;;;;3.17;2.50;;;25.40;99.90;;;;;;5060810;28;20648;-85
2023/08/12 08:18:31;;;;;;;2.43;2.03;;;25.50;99.90;;;;;;5058375;28;20321;-85
2023/08/12 08:20:56;;;;;;;3.00;2.13;;;25.50;99.90;;;;;;5057590;28;20296;-86
2023/08/12 08:23:22;;;;;;;2.37;2.17;;;25.50;99.90;;;;;;5058459;28;20278;-86
2023/08/12 08:25:48;;;;;;;3.37;2.27;;;25.50;99.90;;;;;;5054965;28;20593;-86
2023/08/12 08:28:14;;;;;;;2.97;2.30;;;25.50;99.90;;;;;;5056044;28;20184;-86
2023/08/12 08:30:39;;;;;;;2.50;2.30;;;25.60;99.90;;;;;;5060701;28;20456;-86
2023/08/12 08:33:05;;;;;;;2.10;1.90;;;25.70;99.90;;;;;;5056634;28;20179;-86
2023/08/12 08:35:31;;;;;;;2.63;2.10;;;25.70;99.90;;;;;;5058537;28;20183;-85
2023/08/12 08:37:57;;;;;;;2.40;2.20;;;25.70;99.90;;;;;;5060765;28;20337;-86
2023/08/12 08:40:23;;;;;;;4.77;2.30;;;25.60;99.90;;;;;;5061122;28;20802;-85
2023/08/12 08:42:53;;;;;;;2.10;1.87;;;25.60;99.90;;;;;;5059048;28;20272;-86
2023/08/12 08:45:21;;;;;;;3.83;2.00;;;25.60;99.90;;;;;;5054920;28;20179;-85
2023/08/12 08:47:47;;;;;;;4.00;2.50;;;25.60;99.90;;;;;;5058883;28;20615;-85
2023/08/12 08:50:14;;;;;;;2.63;2.23;;;25.60;99.90;;;;;;5052939;28;20176;-85
2023/08/12 08:52:41;;;;;;;2.43;2.00;;;25.60;99.90;;;;;;5054643;28;20209;-85
2023/08/12 08:55:07;;;;;;;2.60;2.07;;;25.60;99.90;;;;;;5052200;28;20185;-85
2023/08/12 08:57:34;;;;;;;2.70;2.00;;;25.50;99.90;;;;;;5052310;28;20179;-85
2023/08/12 08:59:59;;;;;;;3.43;2.13;;;25.60;99.90;;;;;;5053655;28;20203;-85
2023/08/12 09:02:26;;;;;;;4.37;2.73;;;25.60;99.90;;;;;;5053920;28;20192;-85
2023/08/12 09:04:52;;;;;;;3.00;2.40;;;25.60;99.90;;;;;;5056603;28;20270;-85
2023/08/12 09:07:20;;;;;;;3.03;2.30;;;25.60;99.90;;;;;;5054713;28;20231;-85
2023/08/12 09:09:48;;;;;;;3.80;2.30;;;25.60;99.90;;;;;;5062366;28;20198;-85
2023/08/12 09:12:16;;;;;;;4.00;2.93;;;25.60;99.90;;;;;;5053534;28;20237;-85
2023/08/12 09:14:43;;;;;;;3.60;2.50;;;25.60;99.90;;;;;;5056415;28;20176;-85
2023/08/12 09:17:10;;;;;;;3.33;2.63;;;25.60;99.90;;;;;;5050280;28;20203;-85
2023/08/12 09:19:35;;;;;;;2.90;2.40;;;25.50;99.90;;;;;;5054505;28;20183;-85
2023/08/12 09:22:04;;;;;;;3.90;2.50;;;25.40;99.90;;;;;;5053941;28;20478;-86
2023/08/12 09:24:30;;;;;;;2.90;2.50;;;25.60;99.90;;;;;;5053673;28;20188;-86
2023/08/12 09:26:56;;;;;;;2.40;2.13;;;25.50;99.90;;;;;;5052637;28;20239;-85
2023/08/12 09:29:33;;;;;;;2.40;2.20;;;25.50;99.90;;;;;;5052182;28;20172;-85
2023/08/12 09:32:09;;;;;;;2.50;2.30;;;25.50;99.90;;;;;;5053250;28;20238;-85
2023/08/12 09:34:36;;;;;;;2.73;2.10;;;25.60;99.90;;;;;;5056289;28;20315;-85
2023/08/12 09:37:03;;;;;;;2.33;2.13;;;25.60;99.90;;;;;;5057538;28;20183;-85
2023/08/12 09:39:29;;;;;;;2.47;2.10;;;25.60;99.90;;;;;;5055291;28;20321;-85
2023/08/12 09:41:55;;;;;;;2.53;2.23;;;25.60;99.90;;;;;;5056784;28;20189;-85
2023/08/12 09:44:22;;;;;;;2.37;2.17;;;25.70;99.90;;;;;;5053376;28;20333;-84
2023/08/12 09:46:56;;;;;;;2.27;2.07;;;25.70;99.90;;;;;;5052614;28;20216;-85
2023/08/12 09:49:22;;;;;;;3.30;2.17;;;25.60;99.90;;;;;;5053347;28;20182;-85
2023/08/12 09:51:47;;;;;;;2.33;2.13;;;25.60;99.90;;;;;;5052808;28;20437;-85
2023/08/12 09:54:13;;;;;;;2.10;1.90;;;25.60;99.90;;;;;;5052737;28;20176;-85
2023/08/12 09:56:41;;;;;;;2.47;2.00;;;25.70;99.90;;;;;;5055038;28;20314;-85
2023/08/12 09:59:08;;;;;;;2.30;2.10;;;25.70;99.90;;;;;;5052593;28;20516;-85
2023/08/12 10:01:34;;;;;;;2.40;2.20;;;25.70;99.90;;;;;;5057152;28;20179;-85
2023/08/12 10:04:01;;;;;;;2.73;1.87;;;25.80;99.90;;;;;;5054662;28;20194;-84
2023/08/12 10:06:27;;;;;;;3.23;2.40;;;25.80;99.90;;;;;;5057773;28;20218;-85
2023/08/12 10:08:53;;;;;;;3.10;1.90;;;25.90;99.90;;;;;;5053221;28;20172;-85
2023/08/12 10:11:20;;;;;;;2.55;2.15;;;25.90;99.90;;;;;;5052958;28;20664;-85
2023/08/12 10:13:47;;;;;;;2.87;1.90;;;25.80;99.90;;;;;;5054646;28;20350;-85
2023/08/12 10:16:14;;;;;;;2.23;1.73;;;25.80;99.90;;;;;;5059178;28;20693;-85
2023/08/12 10:18:40;;;;;;;3.10;1.90;;;25.80;99.90;;;;;;5056341;28;20180;-85
2023/08/12 10:21:10;;;;;;;2.33;1.53;;;25.80;99.90;;;;;;5054760;28;20182;-85
2023/08/12 10:23:36;;;;;;;2.03;1.70;;;25.70;99.90;;;;;;5056828;28;20656;-85
2023/08/12 10:26:04;;;;;;;1.90;1.67;;;25.80;99.90;;;;;;5054256;28;20200;-84
2023/08/12 10:28:36;;;;;;;2.58;1.70;;;25.80;99.90;;;;;;5047836;28;20187;-85
2023/08/12 10:31:03;;;;;;;2.37;1.77;;;25.90;99.90;;;;;;5057029;28;20168;-85
2023/08/12 10:33:28;;;;;;;1.63;1.43;;;26.00;99.90;;;;;;5053850;28;20176;-84
2023/08/12 10:35:55;;;;;;;1.83;1.35;;;26.00;99.90;;;;;;5053891;28;20176;-85
2023/08/12 10:38:21;;;;;;;1.95;1.48;;;26.00;99.90;;;;;;5050564;28;20192;-85
2023/08/12 10:40:48;;;;;;;2.17;1.60;;;26.10;99.90;;;;;;5055067;28;20184;-85
2023/08/12 10:43:14;;;;;;;1.33;1.20;;;26.10;99.90;;;;;;5053511;28;20188;-85
2023/08/12 10:45:52;;;;;;;1.93;1.73;;;26.00;99.90;;;;;;5055638;28;20243;-84
2023/08/12 10:48:23;;;;;;;1.85;1.60;;;26.00;99.90;;;;;;5052199;28;20206;-84
2023/08/12 10:50:53;;;;;;;2.30;1.60;;;26.20;99.90;;;;;;5052045;28;20542;-85
2023/08/12 10:53:31;;;;;;;1.92;1.60;;;26.20;99.90;;;;;;5050149;28;20168;-84
2023/08/12 10:56:03;;;;;;;2.42;1.40;;;26.30;99.90;;;;;;5058307;28;20538;-85
2023/08/12 10:58:45;;;;;;;1.65;1.40;;;26.30;99.90;;;;;;5050419;28;20190;-85
2023/08/12 11:01:16;;;;;;;2.65;1.55;;;26.30;99.90;;;;;;5046772;28;20322;-85
2023/08/12 11:03:45;;;;;;;1.55;1.45;;;26.40;99.90;;;;;;5054395;28;20396;-85
2023/08/12 11:06:11;;;;;;;1.13;1.10;;;26.40;99.90;;;;;;5052619;28;20395;-85
2023/08/12 11:08:52;;;;;;;1.73;1.35;;;26.50;99.90;;;;;;5055363;28;20185;-85
2023/08/12 11:11:25;;;;;;;2.58;1.50;;;26.60;99.90;;;;;;5058150;28;20625;-85
2023/08/12 11:13:56;;;;;;;1.30;1.20;;;26.60;99.90;;;;;;5058426;28;20377;-85
2023/08/12 11:16:35;;;;;;;1.48;1.33;;;26.60;99.90;;;;;;5054724;28;20184;-85
2023/08/12 11:19:00;;;;;;;2.03;1.10;;;26.60;99.90;;;;;;5054511;28;20193;-86
2023/08/12 11:21:26;;;;;;;1.33;1.20;;;26.60;99.90;;;;;;5053151;28;20180;-85
2023/08/12 11:23:55;;;;;;;1.75;1.50;;;26.60;99.90;;;;;;5053652;28;20508;-85
2023/08/12 11:26:23;;;;;;;1.95;1.20;;;26.60;99.90;;;;;;5054081;28;20582;-85
2023/08/12 11:28:49;;;;;;;1.50;1.30;;;26.60;99.90;;;;;;5052785;28;20494;-85
2023/08/12 11:31:16;;;;;;;1.55;1.30;;;26.60;99.90;;;;;;5053929;28;20337;-85
2023/08/12 11:33:43;;;;;;;1.40;1.30;;;26.50;99.90;;;;;;5055147;28;20576;-85
2023/08/12 11:36:09;;;;;;;2.47;2.28;;;26.50;99.90;;;;;;5035563;28;20573;-85
2023/08/12 11:38:35;;;;;;;1.38;1.27;;;26.50;99.90;;;;;;5056477;28;20197;-85
2023/08/12 11:41:04;;;;;;;1.43;1.33;;;26.50;99.90;;;;;;5053335;28;20180;-85
2023/08/12 11:43:32;;;;;;;1.38;1.20;;;26.50;99.90;;;;;;5053856;28;20450;-85
2023/08/12 11:45:59;;;;;;;1.27;1.17;;;26.60;99.90;;;;;;5056235;28;20211;-85
2023/08/12 11:48:27;;;;;;;1.63;1.27;;;26.60;99.90;;;;;;5050779;28;20195;-86
2023/08/12 11:50:53;;;;;;;2.07;1.27;;;26.50;99.90;;;;;;5052130;28;20461;-86
2023/08/12 11:53:20;;;;;;;2.80;1.40;;;26.50;99.90;;;;;;5056580;28;20175;-86
2023/08/12 11:55:45;;;;;;;3.23;1.30;;;26.50;99.90;;;;;;5054541;28;20238;-86
2023/08/12 11:58:13;;;;;;;2.83;1.23;;;26.50;99.90;;;;;;5057115;28;20196;-85
2023/08/12 12:00:39;;;;;;;2.30;1.70;;;26.60;99.90;;;;;;5052029;28;20246;-85
2023/08/12 12:03:06;;;;;;;1.65;1.52;;;26.50;99.90;;;;;;5052911;28;20198;-85
2023/08/12 12:05:31;;;;;;;1.40;1.30;;;26.50;99.90;;;;;;5049835;28;20466;-86
2023/08/12 12:07:58;;;;;;;1.53;1.17;;;26.60;99.90;;;;;;5057718;28;20588;-85
2023/08/12 12:10:30;;;;;;;1.63;1.37;;;26.60;99.90;;;;;;5052825;28;20676;-85
2023/08/12 12:12:56;;;;;;;1.20;1.10;;;26.60;99.90;;;;;;5056662;28;20282;-85
2023/08/12 12:15:23;;;;;;;1.30;1.20;;;26.60;99.90;;;;;;5056349;28;20183;-85
2023/08/12 12:17:52;;;;;;;1.52;1.13;;;26.60;99.90;;;;;;5055295;28;20278;-86
2023/08/12 12:20:18;;;;;;;1.92;1.40;;;26.60;99.90;;;;;;5050612;28;20180;-85
2023/08/12 12:22:45;;;;;;;3.15;1.17;;;26.60;99.90;;;;;;5054805;28;20441;-85
2023/08/12 12:25:16;;;;;;;1.38;1.20;;;26.70;99.90;;;;;;5051098;28;20490;-85
2023/08/12 12:27:43;;;;;;;1.20;1.10;;;26.80;99.90;;;;;;5054983;28;20447;-85
2023/08/12 12:30:11;;;;;;;2.00;1.20;;;26.90;99.90;;;;;;5052257;28;20582;-85
2023/08/12 12:32:37;;;;;;;1.40;1.15;;;26.90;99.90;;;;;;5053342;28;20176;-84
2023/08/12 12:35:03;;;;;;;1.35;1.13;;;26.90;99.90;;;;;;5052341;28;20206;-85
2023/08/12 12:37:29;;;;;;;1.17;1.08;;;26.90;99.90;;;;;;5051505;28;20183;-85
2023/08/12 12:39:55;;;;;;;1.98;1.20;;;26.90;99.90;;;;;;5050264;28;20184;-85
2023/08/12 12:42:21;;;;;;;1.48;1.27;;;26.90;99.90;;;;;;5057063;28;20483;-85
2023/08/12 12:44:46;;;;;;;1.00;0.98;;;26.90;99.90;;;;;;5052811;28;20176;-85